createdAt,value
2024-03-24T00:00:07.759Z,959.22
2024-03-24T00:01:07.715Z,959.27
2024-03-24T00:02:07.667Z,959.30
2024-03-24T00:03:07.817Z,959.33
2024-03-24T00:04:07.742Z,959.27
2024-03-24T00:05:07.681Z,959.23
2024-03-24T00:06:07.622Z,959.25
2024-03-24T00:07:07.620Z,959.20
2024-03-24T00:08:08.584Z,959.21
2024-03-24T00:09:07.586Z,959.25
2024-03-24T00:10:07.605Z,959.16
2024-03-24T00:11:07.575Z,959.18
2024-03-24T00:12:07.510Z,959.22
2024-03-24T00:13:07.528Z,959.17
2024-03-24T00:14:07.454Z,959.11
2024-03-24T00:15:07.598Z,959.13
2024-03-24T00:16:07.473Z,959.12
2024-03-24T00:17:07.389Z,959.10
2024-03-24T00:18:07.383Z,959.10
2024-03-24T00:19:07.414Z,959.08
2024-03-24T00:20:07.338Z,959.05
2024-03-24T00:21:07.361Z,958.99
2024-03-24T00:22:07.330Z,958.92
2024-03-24T00:23:07.302Z,958.97
2024-03-24T00:24:07.270Z,958.97
2024-03-24T00:25:07.290Z,958.97
2024-03-24T00:26:07.234Z,958.95
2024-03-24T00:27:07.216Z,958.97
2024-03-24T00:28:07.236Z,958.91
2024-03-24T00:29:07.179Z,958.90
2024-03-24T00:30:07.159Z,958.90
2024-03-24T00:31:07.223Z,958.93
2024-03-24T00:32:07.136Z,958.93
2024-03-24T00:33:07.135Z,958.88
2024-03-24T00:34:07.147Z,958.97
2024-03-24T00:35:07.149Z,958.94
2024-03-24T00:36:07.080Z,958.93
2024-03-24T00:37:07.074Z,958.90
2024-03-24T00:38:07.017Z,958.85
2024-03-24T00:39:07.003Z,958.90
2024-03-24T00:40:07.013Z,958.89
2024-03-24T00:41:06.973Z,958.83
2024-03-24T00:42:07.031Z,958.80
2024-03-24T00:43:06.970Z,958.73
2024-03-24T00:44:06.939Z,958.72
2024-03-24T00:45:06.910Z,958.72
2024-03-24T00:46:06.898Z,958.63
2024-03-24T00:47:06.845Z,958.60
2024-03-24T00:48:06.834Z,958.70
2024-03-24T00:49:06.813Z,958.59
2024-03-24T00:50:07.772Z,958.65
2024-03-24T00:51:06.780Z,958.59
2024-03-24T00:52:06.792Z,958.62
2024-03-24T00:53:06.802Z,958.55
2024-03-24T00:54:07.723Z,958.59
2024-03-24T00:55:06.722Z,958.53
2024-03-24T00:56:07.343Z,958.51
2024-03-24T00:57:06.766Z,958.55
2024-03-24T00:58:06.680Z,958.54
2024-03-24T00:59:06.669Z,958.46
2024-03-24T01:00:06.601Z,958.49
2024-03-24T01:01:06.615Z,958.34
2024-03-24T01:02:06.585Z,958.38
2024-03-24T01:03:06.585Z,958.25
2024-03-24T01:04:06.582Z,958.30
2024-03-24T01:05:06.534Z,958.35
2024-03-24T01:06:06.497Z,958.34
2024-03-24T01:07:06.480Z,958.37
2024-03-24T01:08:06.478Z,958.36
2024-03-24T01:09:06.477Z,958.42
2024-03-24T01:10:06.461Z,958.42
2024-03-24T01:11:06.463Z,958.37
2024-03-24T01:12:06.409Z,958.48
2024-03-24T01:13:06.400Z,958.49
2024-03-24T01:14:06.380Z,958.46
2024-03-24T01:15:06.373Z,958.39
2024-03-24T01:16:06.322Z,958.44
2024-03-24T01:17:06.297Z,958.41
2024-03-24T01:18:06.280Z,958.34
2024-03-24T01:19:06.327Z,958.33
2024-03-24T01:20:06.264Z,958.24
2024-03-24T01:21:06.226Z,958.20
2024-03-24T01:22:06.232Z,958.22
2024-03-24T01:23:06.193Z,958.26
2024-03-24T01:24:06.223Z,958.25
2024-03-24T01:25:06.177Z,958.23
2024-03-24T01:26:06.159Z,958.21
2024-03-24T01:27:06.146Z,958.21
2024-03-24T01:28:06.159Z,958.28
2024-03-24T01:29:06.091Z,958.25
2024-03-24T01:30:06.088Z,958.25
2024-03-24T01:31:06.079Z,958.26
2024-03-24T01:32:06.030Z,958.35
2024-03-24T01:33:06.035Z,958.31
2024-03-24T01:34:05.997Z,958.37
2024-03-24T01:35:06.766Z,958.34
2024-03-24T01:36:05.966Z,958.41
2024-03-24T01:37:05.984Z,958.36
2024-03-24T01:38:05.917Z,958.35
2024-03-24T01:39:05.901Z,958.41
2024-03-24T01:40:06.988Z,958.35
2024-03-24T01:41:05.862Z,958.31
2024-03-24T01:42:06.846Z,958.33
2024-03-24T01:43:06.842Z,958.25
2024-03-24T01:44:05.832Z,958.24
2024-03-24T01:45:06.754Z,958.19
2024-03-24T01:46:06.025Z,958.24
2024-03-24T01:47:05.766Z,958.09
2024-03-24T01:48:05.749Z,958.07
2024-03-24T01:49:05.744Z,958.02
2024-03-24T01:50:05.783Z,957.91
2024-03-24T01:51:05.720Z,957.94
2024-03-24T01:52:05.663Z,957.93
2024-03-24T01:53:06.352Z,957.94
2024-03-24T01:54:05.638Z,957.93
2024-03-24T01:55:05.611Z,957.92
2024-03-24T01:56:05.606Z,957.85
2024-03-24T01:57:05.570Z,957.81
2024-03-24T01:58:05.601Z,957.82
2024-03-24T01:59:06.545Z,957.72
2024-03-24T02:00:05.529Z,957.74
2024-03-24T02:01:05.550Z,957.80
2024-03-24T02:02:05.481Z,957.70
2024-03-24T02:03:05.472Z,957.70
2024-03-24T02:04:05.468Z,957.66
2024-03-24T02:05:05.434Z,957.69
2024-03-24T02:06:05.407Z,957.72
2024-03-24T02:07:05.397Z,957.73
2024-03-24T02:08:06.321Z,957.70
2024-03-24T02:09:05.386Z,957.68
2024-03-24T02:10:05.375Z,957.66
2024-03-24T02:11:05.325Z,957.64
2024-03-24T02:12:05.321Z,957.62
2024-03-24T02:13:05.281Z,957.60
2024-03-24T02:14:06.267Z,957.61
2024-03-24T02:15:05.241Z,957.62
2024-03-24T02:16:05.342Z,957.60
2024-03-24T02:17:05.245Z,957.58
2024-03-24T02:18:05.196Z,957.53
2024-03-24T02:19:05.184Z,957.50
2024-03-24T02:20:05.155Z,957.48
2024-03-24T02:21:06.171Z,957.49
2024-03-24T02:22:05.146Z,957.45
2024-03-24T02:23:05.112Z,957.44
2024-03-24T02:24:06.086Z,957.48
2024-03-24T02:25:05.743Z,957.41
2024-03-24T02:26:05.059Z,957.42
2024-03-24T02:27:05.032Z,957.38
2024-03-24T02:28:05.030Z,957.41
2024-03-24T02:29:04.999Z,957.39
2024-03-24T02:30:05.985Z,957.44
2024-03-24T02:31:04.957Z,957.42
2024-03-24T02:32:05.826Z,957.38
2024-03-24T02:33:05.816Z,957.45
2024-03-24T02:34:05.746Z,957.44
2024-03-24T02:35:04.908Z,957.47
2024-03-24T02:36:04.875Z,957.37
2024-03-24T02:37:04.853Z,957.33
2024-03-24T02:38:04.897Z,957.41
2024-03-24T02:39:04.829Z,957.37
2024-03-24T02:40:04.839Z,957.34
2024-03-24T02:41:04.826Z,957.33
2024-03-24T02:42:04.771Z,957.36
2024-03-24T02:43:04.767Z,957.35
2024-03-24T02:44:04.730Z,957.35
2024-03-24T02:45:05.750Z,957.42
2024-03-24T02:46:04.695Z,957.36
2024-03-24T02:47:04.681Z,957.31
2024-03-24T02:48:04.769Z,957.37
2024-03-24T02:49:04.667Z,957.23
2024-03-24T02:50:04.630Z,957.21
2024-03-24T02:51:04.613Z,957.17
2024-03-24T02:52:04.575Z,957.19
2024-03-24T02:53:04.582Z,957.10
2024-03-24T02:54:04.559Z,957.09
2024-03-24T02:55:04.544Z,957.14
2024-03-24T02:56:04.545Z,957.02
2024-03-24T02:57:04.501Z,957.06
2024-03-24T02:58:04.512Z,957.06
2024-03-24T02:59:04.478Z,957.04
2024-03-24T03:00:04.441Z,957.17
2024-03-24T03:01:05.232Z,957.14
2024-03-24T03:02:05.403Z,957.19
2024-03-24T03:03:04.427Z,957.13
2024-03-24T03:04:04.399Z,957.12
2024-03-24T03:05:04.370Z,957.17
2024-03-24T03:06:04.335Z,957.15
2024-03-24T03:07:05.308Z,957.11
2024-03-24T03:08:04.285Z,957.05
2024-03-24T03:09:04.277Z,957.09
2024-03-24T03:10:05.721Z,957.03
2024-03-24T03:11:04.246Z,957.06
2024-03-24T03:12:04.241Z,957.00
2024-03-24T03:13:04.199Z,956.98
2024-03-24T03:14:04.187Z,957.00
2024-03-24T03:15:04.167Z,956.97
2024-03-24T03:16:04.140Z,957.03
2024-03-24T03:17:04.145Z,956.98
2024-03-24T03:18:04.110Z,956.99
2024-03-24T03:19:04.111Z,956.89
2024-03-24T03:20:04.122Z,956.87
2024-03-24T03:21:04.054Z,956.87
2024-03-24T03:22:04.036Z,956.91
2024-03-24T03:23:04.015Z,956.85
2024-03-24T03:24:04.016Z,956.75
2024-03-24T03:25:03.980Z,956.86
2024-03-24T03:26:03.955Z,956.82
2024-03-24T03:27:03.940Z,956.83
2024-03-24T03:28:03.926Z,956.76
2024-03-24T03:29:04.942Z,956.74
2024-03-24T03:30:03.909Z,956.70
2024-03-24T03:31:03.883Z,956.75
2024-03-24T03:32:03.864Z,956.69
2024-03-24T03:33:03.834Z,956.69
2024-03-24T03:34:03.830Z,956.68
2024-03-24T03:35:03.811Z,956.67
2024-03-24T03:36:03.776Z,956.66
2024-03-24T03:37:03.757Z,956.66
2024-03-24T03:38:03.739Z,956.67
2024-03-24T03:39:03.737Z,956.67
2024-03-24T03:40:03.713Z,956.65
2024-03-24T03:41:03.681Z,956.64
2024-03-24T03:42:03.661Z,956.64
2024-03-24T03:43:03.651Z,956.57
2024-03-24T03:44:03.629Z,956.58
2024-03-24T03:45:03.636Z,956.52
2024-03-24T03:46:03.594Z,956.48
2024-03-24T03:47:03.571Z,956.48
2024-03-24T03:48:03.555Z,956.52
2024-03-24T03:49:03.536Z,956.42
2024-03-24T03:50:03.537Z,956.45
2024-03-24T03:51:03.510Z,956.38
2024-03-24T03:52:03.482Z,956.40
2024-03-24T03:53:03.490Z,956.37
2024-03-24T03:54:03.452Z,956.33
2024-03-24T03:55:03.436Z,956.33
2024-03-24T03:56:03.427Z,956.28
2024-03-24T03:57:03.399Z,956.24
2024-03-24T03:58:03.381Z,956.33
2024-03-24T03:59:03.379Z,956.28
2024-03-24T04:00:03.347Z,956.29
2024-03-24T04:01:03.351Z,956.26
2024-03-24T04:02:03.335Z,956.30
2024-03-24T04:03:03.298Z,956.25
2024-03-24T04:04:03.278Z,956.25
2024-03-24T04:05:03.252Z,956.33
2024-03-24T04:06:03.260Z,956.28
2024-03-24T04:07:03.213Z,956.25
2024-03-24T04:08:03.228Z,956.27
2024-03-24T04:09:03.178Z,956.26
2024-03-24T04:10:03.163Z,956.17
2024-03-24T04:11:03.181Z,956.22
2024-03-24T04:12:03.125Z,956.27
2024-03-24T04:13:03.124Z,956.09
2024-03-24T04:14:03.085Z,956.19
2024-03-24T04:15:03.079Z,956.17
2024-03-24T04:16:03.059Z,956.20
2024-03-24T04:17:03.866Z,956.16
2024-03-24T04:18:03.024Z,956.14
2024-03-24T04:19:03.015Z,956.17
2024-03-24T04:20:02.986Z,956.16
2024-03-24T04:21:02.975Z,956.17
2024-03-24T04:22:02.979Z,956.08
2024-03-24T04:23:03.966Z,956.10
2024-03-24T04:24:02.915Z,956.10
2024-03-24T04:25:02.894Z,956.10
2024-03-24T04:26:03.771Z,956.11
2024-03-24T04:27:05.523Z,956.04
2024-03-24T04:28:03.858Z,956.01
2024-03-24T04:29:02.828Z,955.98
2024-03-24T04:30:03.816Z,956.05
2024-03-24T04:31:02.792Z,956.07
2024-03-24T04:32:02.827Z,956.04
2024-03-24T04:33:02.771Z,956.04
2024-03-24T04:34:02.738Z,956.01
2024-03-24T04:35:02.726Z,956.09
2024-03-24T04:36:02.710Z,956.05
2024-03-24T04:37:02.694Z,955.97
2024-03-24T04:38:02.679Z,956.00
2024-03-24T04:39:02.652Z,956.03
2024-03-24T04:40:02.641Z,956.02
2024-03-24T04:41:02.622Z,956.01
2024-03-24T04:42:02.613Z,956.02
2024-03-24T04:43:02.605Z,956.03
2024-03-24T04:44:02.570Z,956.01
2024-03-24T04:45:02.546Z,956.05
2024-03-24T04:46:03.543Z,955.97
2024-03-24T04:47:02.529Z,955.98
2024-03-24T04:48:02.518Z,955.97
2024-03-24T04:49:05.294Z,955.98
2024-03-24T04:50:02.460Z,955.91
2024-03-24T04:51:02.465Z,955.90
2024-03-24T04:52:02.412Z,955.90
2024-03-24T04:53:02.509Z,955.85
2024-03-24T04:54:02.378Z,955.88
2024-03-24T04:55:02.370Z,955.78
2024-03-24T04:56:02.343Z,955.78
2024-03-24T04:57:03.283Z,955.78
2024-03-24T04:58:02.333Z,955.86
2024-03-24T04:59:02.308Z,955.81
2024-03-24T05:00:02.306Z,955.78
2024-03-24T05:01:02.259Z,955.76
2024-03-24T05:02:02.230Z,955.77
2024-03-24T05:03:02.215Z,955.77
2024-03-24T05:04:02.208Z,955.79
2024-03-24T05:05:02.798Z,955.65
2024-03-24T05:06:02.164Z,955.72
2024-03-24T05:07:02.157Z,955.77
2024-03-24T05:08:02.164Z,955.82
2024-03-24T05:09:02.142Z,955.79
2024-03-24T05:10:03.775Z,955.74
2024-03-24T05:11:02.073Z,955.74
2024-03-24T05:12:02.055Z,955.77
2024-03-24T05:13:02.041Z,955.71
2024-03-24T05:14:02.779Z,955.74
2024-03-24T05:15:02.012Z,955.77
2024-03-24T05:16:01.982Z,955.73
2024-03-24T05:17:01.962Z,955.75
2024-03-24T05:18:01.950Z,955.72
2024-03-24T05:19:01.931Z,955.71
2024-03-24T05:20:01.922Z,955.72
2024-03-24T05:21:01.894Z,955.77
2024-03-24T05:22:02.747Z,955.77
2024-03-24T05:23:01.875Z,955.70
2024-03-24T05:24:01.837Z,955.73
2024-03-24T05:25:01.827Z,955.75
2024-03-24T05:26:01.799Z,955.77
2024-03-24T05:27:01.779Z,955.75
2024-03-24T05:28:01.767Z,955.71
2024-03-24T05:29:01.746Z,955.71
2024-03-24T05:30:01.767Z,955.68
2024-03-24T05:31:01.731Z,955.71
2024-03-24T05:32:01.706Z,955.64
2024-03-24T05:33:01.707Z,955.78
2024-03-24T05:34:01.659Z,955.61
2024-03-24T05:35:01.670Z,955.62
2024-03-24T05:36:01.792Z,955.60
2024-03-24T05:37:01.598Z,955.57
2024-03-24T05:38:01.583Z,955.64
2024-03-24T05:39:01.576Z,955.61
2024-03-24T05:40:01.622Z,955.55
2024-03-24T05:41:01.575Z,955.57
2024-03-24T05:42:01.510Z,955.58
2024-03-24T05:43:01.494Z,955.63
2024-03-24T05:44:01.475Z,955.55
2024-03-24T05:45:01.513Z,955.59
2024-03-24T05:46:01.466Z,955.59
2024-03-24T05:47:01.434Z,955.56
2024-03-24T05:48:01.406Z,955.66
2024-03-24T05:49:01.411Z,955.65
2024-03-24T05:50:01.369Z,955.60
2024-03-24T05:51:02.369Z,955.60
2024-03-24T05:52:01.341Z,955.57
2024-03-24T05:53:01.329Z,955.56
2024-03-24T05:54:01.318Z,955.56
2024-03-24T05:55:01.280Z,955.60
2024-03-24T05:56:01.553Z,955.54
2024-03-24T05:57:01.244Z,955.62
2024-03-24T05:58:01.271Z,955.62
2024-03-24T05:59:01.211Z,955.55
2024-03-24T06:00:01.187Z,955.59
2024-03-24T06:01:01.198Z,955.63
2024-03-24T06:02:01.173Z,955.69
2024-03-24T06:03:01.145Z,955.61
2024-03-24T06:04:01.116Z,955.67
2024-03-24T06:05:02.116Z,955.69
2024-03-24T06:06:01.098Z,955.69
2024-03-24T06:07:01.100Z,955.69
2024-03-24T06:08:01.055Z,955.70
2024-03-24T06:09:01.021Z,955.71
2024-03-24T06:10:01.011Z,955.63
2024-03-24T06:11:01.674Z,955.78
2024-03-24T06:12:01.005Z,955.76
2024-03-24T06:13:00.976Z,955.74
2024-03-24T06:14:00.934Z,955.70
2024-03-24T06:15:00.940Z,955.73
2024-03-24T06:16:01.934Z,955.70
2024-03-24T06:17:00.914Z,955.76
2024-03-24T06:18:00.872Z,955.64
2024-03-24T06:19:01.756Z,955.70
2024-03-24T06:20:00.847Z,955.61
2024-03-24T06:21:00.820Z,955.62
2024-03-24T06:22:00.806Z,955.63
2024-03-24T06:23:00.811Z,955.65
2024-03-24T06:24:00.766Z,955.65
2024-03-24T06:25:00.750Z,955.69
2024-03-24T06:26:01.282Z,955.61
2024-03-24T06:27:00.731Z,955.54
2024-03-24T06:28:00.720Z,955.56
2024-03-24T06:29:00.680Z,955.54
2024-03-24T06:30:00.784Z,955.54
2024-03-24T06:31:00.652Z,955.56
2024-03-24T06:32:00.627Z,955.56
2024-03-24T06:33:00.780Z,955.57
2024-03-24T06:34:00.596Z,955.56
2024-03-24T06:35:00.583Z,955.59
2024-03-24T06:36:00.567Z,955.47
2024-03-24T06:37:01.178Z,955.38
2024-03-24T06:38:01.566Z,955.43
2024-03-24T06:39:00.513Z,955.38
2024-03-24T06:40:00.510Z,955.38
2024-03-24T06:41:00.500Z,955.46
2024-03-24T06:42:00.460Z,955.39
2024-03-24T06:43:01.184Z,955.36
2024-03-24T06:44:00.425Z,955.39
2024-03-24T06:45:00.452Z,955.37
2024-03-24T06:46:00.381Z,955.35
2024-03-24T06:47:00.423Z,955.34
2024-03-24T06:48:00.410Z,955.33
2024-03-24T06:49:00.353Z,955.41
2024-03-24T06:50:00.426Z,955.36
2024-03-24T06:51:00.399Z,955.40
2024-03-24T06:52:00.330Z,955.42
2024-03-24T06:53:00.308Z,955.38
2024-03-24T06:54:00.309Z,955.41
2024-03-24T06:55:00.291Z,955.41
2024-03-24T06:56:00.284Z,955.39
2024-03-24T06:57:00.406Z,955.35
2024-03-24T06:58:00.182Z,955.38
2024-03-24T06:59:00.176Z,955.36
2024-03-24T07:00:00.200Z,955.42
2024-03-24T07:01:00.126Z,955.41
2024-03-24T07:02:00.109Z,955.40
2024-03-24T07:03:00.067Z,955.31
2024-03-24T07:04:00.065Z,955.41
2024-03-24T07:05:00.043Z,955.44
2024-03-24T07:06:00.034Z,955.35
2024-03-24T07:06:59.995Z,955.37
2024-03-24T07:07:59.995Z,955.38
2024-03-24T07:08:59.959Z,955.32
2024-03-24T07:10:02.812Z,955.39
2024-03-24T07:11:00.924Z,955.41
2024-03-24T07:11:59.920Z,955.44
2024-03-24T07:12:59.883Z,955.45
2024-03-24T07:13:59.866Z,955.51
2024-03-24T07:14:59.880Z,955.40
2024-03-24T07:15:59.829Z,955.38
2024-03-24T07:16:59.814Z,955.37
2024-03-24T07:17:59.910Z,955.43
2024-03-24T07:18:59.773Z,955.51
2024-03-24T07:20:00.784Z,955.46
2024-03-24T07:20:59.736Z,955.47
2024-03-24T07:21:59.727Z,955.42
2024-03-24T07:22:59.730Z,955.44
2024-03-24T07:23:59.700Z,955.40
2024-03-24T07:24:59.670Z,955.38
2024-03-24T07:25:59.655Z,955.37
2024-03-24T07:26:59.630Z,955.34
2024-03-24T07:28:00.613Z,955.41
2024-03-24T07:28:59.600Z,955.42
2024-03-24T07:29:59.583Z,955.37
2024-03-24T07:30:59.565Z,955.43
2024-03-24T07:32:00.182Z,955.39
2024-03-24T07:32:59.528Z,955.43
2024-03-24T07:33:59.497Z,955.50
2024-03-24T07:34:59.478Z,955.49
2024-03-24T07:35:59.506Z,955.39
2024-03-24T07:37:00.438Z,955.33
2024-03-24T07:37:59.430Z,955.46
2024-03-24T07:38:59.435Z,955.37
2024-03-24T07:39:59.395Z,955.31
2024-03-24T07:40:59.408Z,955.32
2024-03-24T07:41:59.356Z,955.32
2024-03-24T07:43:00.460Z,955.34
2024-03-24T07:43:59.309Z,955.38
2024-03-24T07:44:59.301Z,955.38
2024-03-24T07:45:59.291Z,955.34
2024-03-24T07:46:59.287Z,955.31
2024-03-24T07:47:59.243Z,955.37
2024-03-24T07:48:59.237Z,955.51
2024-03-24T07:49:59.207Z,955.45
2024-03-24T07:50:59.187Z,955.43
2024-03-24T07:51:59.181Z,955.49
2024-03-24T07:52:59.162Z,955.47
2024-03-24T07:53:59.671Z,955.45
2024-03-24T07:54:59.115Z,955.46
2024-03-24T07:55:59.102Z,955.48
2024-03-24T07:57:00.097Z,955.41
2024-03-24T07:57:59.051Z,955.54
2024-03-24T07:58:59.040Z,955.33
2024-03-24T07:59:59.017Z,955.31
2024-03-24T08:00:59.001Z,955.36
2024-03-24T08:01:59.753Z,955.36
2024-03-24T08:02:58.975Z,955.34
2024-03-24T08:03:58.943Z,955.39
2024-03-24T08:04:58.937Z,955.35
2024-03-24T08:05:58.908Z,955.41
2024-03-24T08:06:58.887Z,955.40
2024-03-24T08:07:58.904Z,955.40
2024-03-24T08:08:58.844Z,955.43
2024-03-24T08:09:58.870Z,955.37
2024-03-24T08:10:58.812Z,955.30
2024-03-24T08:11:58.801Z,955.21
2024-03-24T08:12:58.837Z,955.18
2024-03-24T08:13:58.753Z,955.25
2024-03-24T08:14:58.745Z,955.25
2024-03-24T08:15:58.719Z,955.31
2024-03-24T08:16:58.699Z,955.32
2024-03-24T08:17:58.750Z,955.36
2024-03-24T08:18:58.660Z,955.30
2024-03-24T08:19:58.643Z,955.35
2024-03-24T08:20:58.615Z,955.42
2024-03-24T08:22:00.622Z,955.42
2024-03-24T08:22:58.615Z,955.36
2024-03-24T08:23:58.564Z,955.33
2024-03-24T08:24:58.558Z,955.54
2024-03-24T08:25:58.532Z,955.47
2024-03-24T08:26:58.511Z,955.55
2024-03-24T08:27:58.490Z,955.53
2024-03-24T08:28:58.742Z,955.57
2024-03-24T08:29:58.461Z,955.58
2024-03-24T08:30:58.445Z,955.56
2024-03-24T08:31:58.436Z,955.54
2024-03-24T08:32:58.414Z,955.51
2024-03-24T08:33:58.394Z,955.50
2024-03-24T08:34:58.359Z,955.58
2024-03-24T08:35:58.342Z,955.62
2024-03-24T08:36:58.322Z,955.66
2024-03-24T08:37:58.310Z,955.67
2024-03-24T08:38:58.308Z,955.62
2024-03-24T08:39:58.278Z,955.66
2024-03-24T08:40:59.228Z,955.59
2024-03-24T08:42:02.532Z,955.68
2024-03-24T08:43:00.216Z,955.66
2024-03-24T08:43:58.675Z,955.62
2024-03-24T08:44:59.176Z,955.70
2024-03-24T08:45:59.158Z,955.72
2024-03-24T08:46:58.143Z,955.71
2024-03-24T08:47:58.125Z,955.67
2024-03-24T08:48:58.133Z,955.73
2024-03-24T08:49:58.092Z,955.64
2024-03-24T08:50:58.076Z,955.60
2024-03-24T08:51:58.045Z,955.65
2024-03-24T08:52:58.020Z,955.59
2024-03-24T08:53:58.014Z,955.66
2024-03-24T08:54:58.002Z,955.63
2024-03-24T08:55:57.965Z,955.63
2024-03-24T08:56:57.940Z,955.61
2024-03-24T08:57:58.924Z,955.63
2024-03-24T08:58:57.909Z,955.55
2024-03-24T08:59:57.912Z,955.67
2024-03-24T09:00:57.869Z,955.64
2024-03-24T09:01:57.866Z,955.59
2024-03-24T09:02:57.838Z,955.67
2024-03-24T09:03:57.824Z,955.59
2024-03-24T09:04:57.830Z,955.67
2024-03-24T09:05:57.788Z,955.64
2024-03-24T09:06:57.762Z,955.71
2024-03-24T09:07:57.742Z,955.75
2024-03-24T09:08:57.735Z,955.72
2024-03-24T09:09:57.712Z,955.59
2024-03-24T09:10:57.690Z,955.67
2024-03-24T09:11:57.666Z,955.69
2024-03-24T09:12:57.644Z,955.69
2024-03-24T09:13:57.623Z,955.59
2024-03-24T09:14:57.617Z,955.77
2024-03-24T09:15:57.599Z,955.75
2024-03-24T09:16:57.575Z,955.74
2024-03-24T09:17:57.554Z,955.71
2024-03-24T09:18:57.537Z,955.67
2024-03-24T09:19:57.522Z,955.65
2024-03-24T09:20:57.525Z,955.70
2024-03-24T09:21:57.494Z,955.70
2024-03-24T09:22:57.475Z,955.68
2024-03-24T09:23:57.451Z,955.65
2024-03-24T09:24:57.434Z,955.73
2024-03-24T09:25:57.464Z,955.67
2024-03-24T09:26:57.394Z,955.67
2024-03-24T09:27:57.392Z,955.62
2024-03-24T09:28:57.371Z,955.63
2024-03-24T09:29:57.359Z,955.57
2024-03-24T09:30:57.330Z,955.60
2024-03-24T09:31:57.322Z,955.67
2024-03-24T09:32:57.288Z,955.56
2024-03-24T09:33:57.269Z,955.67
2024-03-24T09:35:05.307Z,955.66
2024-03-24T09:35:59.243Z,955.57
2024-03-24T09:36:57.226Z,955.64
2024-03-24T09:37:57.210Z,955.69
2024-03-24T09:38:57.190Z,955.72
2024-03-24T09:39:57.162Z,955.66
2024-03-24T09:40:57.149Z,955.57
2024-03-24T09:41:57.245Z,955.59
2024-03-24T09:42:57.113Z,955.65
2024-03-24T09:43:57.094Z,955.65
2024-03-24T09:44:57.078Z,955.60
2024-03-24T09:45:57.061Z,955.61
2024-03-24T09:46:57.058Z,955.63
2024-03-24T09:47:57.052Z,955.62
2024-03-24T09:48:57.012Z,955.57
2024-03-24T09:49:57.989Z,955.59
2024-03-24T09:50:56.962Z,955.64
2024-03-24T09:51:58.734Z,955.58
2024-03-24T09:52:57.714Z,955.54
2024-03-24T09:53:56.920Z,955.58
2024-03-24T09:54:56.901Z,955.59
2024-03-24T09:55:56.896Z,955.59
2024-03-24T09:56:56.890Z,955.53
2024-03-24T09:58:06.904Z,955.57
2024-03-24T09:58:57.836Z,955.54
2024-03-24T09:59:56.814Z,955.55
2024-03-24T10:00:57.705Z,955.58
2024-03-24T10:01:56.782Z,955.70
2024-03-24T10:02:56.778Z,955.72
2024-03-24T10:03:56.744Z,955.62
2024-03-24T10:04:56.722Z,955.65
2024-03-24T10:05:56.708Z,955.64
2024-03-24T10:06:56.695Z,955.69
2024-03-24T10:07:56.704Z,955.75
2024-03-24T10:08:56.678Z,955.60
2024-03-24T10:09:57.182Z,955.76
2024-03-24T10:10:56.631Z,955.77
2024-03-24T10:11:56.603Z,955.72
2024-03-24T10:12:56.619Z,955.76
2024-03-24T10:13:56.567Z,955.73
2024-03-24T10:14:56.583Z,955.71
2024-03-24T10:15:56.547Z,955.65
2024-03-24T10:16:56.527Z,955.68
2024-03-24T10:17:56.509Z,955.66
2024-03-24T10:18:56.489Z,955.60
2024-03-24T10:19:56.477Z,955.71
2024-03-24T10:20:56.442Z,955.74
2024-03-24T10:21:56.424Z,955.75
2024-03-24T10:22:56.420Z,955.74
2024-03-24T10:23:56.403Z,955.78
2024-03-24T10:24:56.393Z,955.74
2024-03-24T10:25:56.370Z,955.77
2024-03-24T10:26:56.341Z,955.74
2024-03-24T10:27:56.312Z,955.74
2024-03-24T10:28:56.319Z,955.69
2024-03-24T10:29:56.286Z,955.77
2024-03-24T10:30:56.259Z,955.67
2024-03-24T10:31:56.248Z,955.70
2024-03-24T10:32:56.224Z,955.80
2024-03-24T10:33:56.241Z,955.78
2024-03-24T10:34:56.191Z,955.81
2024-03-24T10:35:56.179Z,955.78
2024-03-24T10:36:56.157Z,955.76
2024-03-24T10:37:56.137Z,955.87
2024-03-24T10:38:56.114Z,955.89
2024-03-24T10:39:56.114Z,955.88
2024-03-24T10:40:56.072Z,955.90
2024-03-24T10:41:57.074Z,955.83
2024-03-24T10:42:56.050Z,955.91
2024-03-24T10:43:56.624Z,955.91
2024-03-24T10:44:56.042Z,955.80
2024-03-24T10:45:56.009Z,955.75
2024-03-24T10:46:55.982Z,955.84
2024-03-24T10:47:55.975Z,955.85
2024-03-24T10:48:55.949Z,955.82
2024-03-24T10:49:55.932Z,955.80
2024-03-24T10:50:55.925Z,955.82
2024-03-24T10:51:55.895Z,955.80
2024-03-24T10:52:58.128Z,955.80
2024-03-24T10:53:55.860Z,955.68
2024-03-24T10:54:55.840Z,955.75
2024-03-24T10:55:55.828Z,955.78
2024-03-24T10:56:55.818Z,955.73
2024-03-24T10:57:55.787Z,955.75
2024-03-24T10:58:55.760Z,955.72
2024-03-24T10:59:56.626Z,955.64
2024-03-24T11:00:55.748Z,955.59
2024-03-24T11:01:55.715Z,955.64
2024-03-24T11:02:55.692Z,955.66
2024-03-24T11:03:55.675Z,955.60
2024-03-24T11:04:55.655Z,955.61
2024-03-24T11:05:55.667Z,955.58
2024-03-24T11:06:55.624Z,955.57
2024-03-24T11:07:55.609Z,955.58
2024-03-24T11:08:55.590Z,955.56
2024-03-24T11:09:55.568Z,955.55
2024-03-24T11:10:56.588Z,955.55
2024-03-24T11:11:55.534Z,955.67
2024-03-24T11:12:55.527Z,955.58
2024-03-24T11:13:55.510Z,955.59
2024-03-24T11:14:56.488Z,955.58
2024-03-24T11:15:55.468Z,955.56
2024-03-24T11:16:55.477Z,955.59
2024-03-24T11:17:55.440Z,955.51
2024-03-24T11:18:57.207Z,955.43
2024-03-24T11:19:56.398Z,955.55
2024-03-24T11:20:55.389Z,955.46
2024-03-24T11:21:55.365Z,955.48
2024-03-24T11:22:55.347Z,955.46
2024-03-24T11:23:55.344Z,955.39
2024-03-24T11:24:55.310Z,955.42
2024-03-24T11:25:55.293Z,955.32
2024-03-24T11:26:55.308Z,955.52
2024-03-24T11:27:55.256Z,955.43
2024-03-24T11:28:55.251Z,955.37
2024-03-24T11:29:56.122Z,955.39
2024-03-24T11:30:56.210Z,955.41
2024-03-24T11:31:55.208Z,955.37
2024-03-24T11:32:55.184Z,955.39
2024-03-24T11:33:55.157Z,955.36
2024-03-24T11:34:55.142Z,955.49
2024-03-24T11:35:55.123Z,955.34
2024-03-24T11:36:55.102Z,955.33
2024-03-24T11:37:55.103Z,955.27
2024-03-24T11:38:55.072Z,955.24
2024-03-24T11:39:55.048Z,955.20
2024-03-24T11:40:55.040Z,955.22
2024-03-24T11:41:55.021Z,955.20
2024-03-24T11:42:55.026Z,955.15
2024-03-24T11:43:54.985Z,955.15
2024-03-24T11:44:54.966Z,955.06
2024-03-24T11:45:54.948Z,955.03
2024-03-24T11:46:54.940Z,955.07
2024-03-24T11:47:54.951Z,955.06
2024-03-24T11:48:54.908Z,955.09
2024-03-24T11:49:54.881Z,955.01
2024-03-24T11:50:54.869Z,955.07
2024-03-24T11:51:54.846Z,955.06
2024-03-24T11:52:54.841Z,955.06
2024-03-24T11:53:54.820Z,955.05
2024-03-24T11:54:54.805Z,955.04
2024-03-24T11:55:54.784Z,955.02
2024-03-24T11:56:54.771Z,954.92
2024-03-24T11:57:54.748Z,954.91
2024-03-24T11:58:54.747Z,954.99
2024-03-24T11:59:54.712Z,954.95
2024-03-24T12:00:54.688Z,955.02
2024-03-24T12:01:55.679Z,954.98
2024-03-24T12:02:54.662Z,955.03
2024-03-24T12:03:54.664Z,955.00
2024-03-24T12:04:54.625Z,954.96
2024-03-24T12:05:54.607Z,955.03
2024-03-24T12:06:54.594Z,954.97
2024-03-24T12:07:55.180Z,954.92
2024-03-24T12:08:54.588Z,954.93
2024-03-24T12:09:54.539Z,954.92
2024-03-24T12:10:54.520Z,954.95
2024-03-24T12:11:55.214Z,954.93
2024-03-24T12:12:54.500Z,954.96
2024-03-24T12:13:54.463Z,954.98
2024-03-24T12:14:54.466Z,954.94
2024-03-24T12:15:54.431Z,954.97
2024-03-24T12:16:54.425Z,954.92
2024-03-24T12:17:54.409Z,955.02
2024-03-24T12:18:54.386Z,955.04
2024-03-24T12:19:54.381Z,954.98
2024-03-24T12:20:54.492Z,955.04
2024-03-24T12:21:54.351Z,955.02
2024-03-24T12:22:54.588Z,955.03
2024-03-24T12:23:54.295Z,954.99
2024-03-24T12:24:54.303Z,954.99
2024-03-24T12:25:54.251Z,954.93
2024-03-24T12:26:55.267Z,954.87
2024-03-24T12:27:54.234Z,954.79